sensor_id;sensor_type;location;lat;lon;timestamp;P1;durP1;ratioP1;P2;durP2;ratioP2
76380;SDS011;65202;52.520;10.528;2023-04-06T00:01:16;14.32;;;8.60;;
76380;SDS011;65202;52.520;10.528;2023-04-06T00:03:44;14.45;;;9.43;;
76380;SDS011;65202;52.520;10.528;2023-04-06T00:06:11;13.52;;;9.25;;
76380;SDS011;65202;52.520;10.528;2023-04-06T00:08:38;15.23;;;9.27;;
76380;SDS011;65202;52.520;10.528;2023-04-06T00:11:05;13.93;;;9.63;;
76380;SDS011;65202;52.520;10.528;2023-04-06T00:13:32;20.60;;;10.95;;
76380;SDS011;65202;52.520;10.528;2023-04-06T00:15:59;16.98;;;9.98;;
76380;SDS011;65202;52.520;10.528;2023-04-06T00:18:27;16.85;;;10.38;;
76380;SDS011;65202;52.520;10.528;2023-04-06T00:20:54;13.93;;;9.02;;
76380;SDS011;65202;52.520;10.528;2023-04-06T00:23:22;15.60;;;9.15;;
76380;SDS011;65202;52.520;10.528;2023-04-06T00:25:49;21.50;;;9.45;;
76380;SDS011;65202;52.520;10.528;2023-04-06T00:28:16;14.77;;;9.18;;
76380;SDS011;65202;52.520;10.528;2023-04-06T00:30:44;13.82;;;8.98;;
76380;SDS011;65202;52.520;10.528;2023-04-06T00:33:11;14.85;;;8.82;;
76380;SDS011;65202;52.520;10.528;2023-04-06T00:35:38;12.93;;;9.10;;
76380;SDS011;65202;52.520;10.528;2023-04-06T00:38:05;13.60;;;9.57;;
76380;SDS011;65202;52.520;10.528;2023-04-06T00:40:32;15.93;;;9.02;;
76380;SDS011;65202;52.520;10.528;2023-04-06T00:43:01;12.00;;;8.25;;
76380;SDS011;65202;52.520;10.528;2023-04-06T00:45:28;11.00;;;7.90;;
76380;SDS011;65202;52.520;10.528;2023-04-06T00:47:56;12.75;;;8.60;;
76380;SDS011;65202;52.520;10.528;2023-04-06T00:50:24;11.88;;;8.57;;
76380;SDS011;65202;52.520;10.528;2023-04-06T00:52:51;14.35;;;7.97;;
76380;SDS011;65202;52.520;10.528;2023-04-06T00:55:18;10.73;;;7.45;;
76380;SDS011;65202;52.520;10.528;2023-04-06T00:57:46;14.50;;;8.38;;
76380;SDS011;65202;52.520;10.528;2023-04-06T01:00:14;11.30;;;7.30;;
76380;SDS011;65202;52.520;10.528;2023-04-06T01:02:42;13.00;;;7.68;;
76380;SDS011;65202;52.520;10.528;2023-04-06T01:05:11;12.45;;;7.75;;
76380;SDS011;65202;52.520;10.528;2023-04-06T01:07:39;13.98;;;7.78;;
76380;SDS011;65202;52.520;10.528;2023-04-06T01:10:06;15.52;;;7.85;;
76380;SDS011;65202;52.520;10.528;2023-04-06T01:12:33;11.68;;;7.72;;
76380;SDS011;65202;52.520;10.528;2023-04-06T01:15:01;12.52;;;7.90;;
76380;SDS011;65202;52.520;10.528;2023-04-06T01:17:28;15.35;;;8.25;;
76380;SDS011;65202;52.520;10.528;2023-04-06T01:19:55;11.65;;;7.85;;
76380;SDS011;65202;52.520;10.528;2023-04-06T01:22:23;12.75;;;8.02;;
76380;SDS011;65202;52.520;10.528;2023-04-06T01:24:51;11.50;;;7.35;;
76380;SDS011;65202;52.520;10.528;2023-04-06T01:27:18;12.85;;;8.27;;
76380;SDS011;65202;52.520;10.528;2023-04-06T01:29:45;14.65;;;7.47;;
76380;SDS011;65202;52.520;10.528;2023-04-06T01:32:12;12.23;;;7.95;;
76380;SDS011;65202;52.520;10.528;2023-04-06T01:34:39;13.60;;;8.30;;
76380;SDS011;65202;52.520;10.528;2023-04-06T01:37:07;12.05;;;7.88;;
76380;SDS011;65202;52.520;10.528;2023-04-06T01:39:34;12.43;;;7.95;;
76380;SDS011;65202;52.520;10.528;2023-04-06T01:42:01;15.48;;;8.32;;
76380;SDS011;65202;52.520;10.528;2023-04-06T01:44:29;12.50;;;8.07;;
76380;SDS011;65202;52.520;10.528;2023-04-06T01:46:59;13.00;;;8.88;;
76380;SDS011;65202;52.520;10.528;2023-04-06T01:49:26;12.80;;;7.72;;
76380;SDS011;65202;52.520;10.528;2023-04-06T01:51:53;15.73;;;8.80;;
76380;SDS011;65202;52.520;10.528;2023-04-06T01:54:21;12.68;;;7.95;;
76380;SDS011;65202;52.520;10.528;2023-04-06T01:56:48;11.02;;;8.07;;
76380;SDS011;65202;52.520;10.528;2023-04-06T01:59:17;12.38;;;7.78;;
76380;SDS011;65202;52.520;10.528;2023-04-06T02:01:44;10.93;;;7.70;;
76380;SDS011;65202;52.520;10.528;2023-04-06T02:04:12;15.05;;;8.55;;
76380;SDS011;65202;52.520;10.528;2023-04-06T02:06:40;15.35;;;8.20;;
76380;SDS011;65202;52.520;10.528;2023-04-06T02:09:08;12.23;;;7.88;;
76380;SDS011;65202;52.520;10.528;2023-04-06T02:11:35;14.60;;;7.72;;
76380;SDS011;65202;52.520;10.528;2023-04-06T02:14:02;13.70;;;7.68;;
76380;SDS011;65202;52.520;10.528;2023-04-06T02:16:30;12.23;;;7.82;;
76380;SDS011;65202;52.520;10.528;2023-04-06T02:18:57;12.90;;;7.60;;
76380;SDS011;65202;52.520;10.528;2023-04-06T02:21:24;14.48;;;7.47;;
76380;SDS011;65202;52.520;10.528;2023-04-06T02:23:51;13.50;;;7.53;;
76380;SDS011;65202;52.520;10.528;2023-04-06T02:26:19;13.88;;;7.70;;
76380;SDS011;65202;52.520;10.528;2023-04-06T02:28:47;10.57;;;7.78;;
76380;SDS011;65202;52.520;10.528;2023-04-06T02:31:14;12.20;;;8.07;;
76380;SDS011;65202;52.520;10.528;2023-04-06T02:33:42;16.38;;;8.48;;
76380;SDS011;65202;52.520;10.528;2023-04-06T02:36:09;12.90;;;7.63;;
76380;SDS011;65202;52.520;10.528;2023-04-06T02:38:36;11.18;;;7.25;;
76380;SDS011;65202;52.520;10.528;2023-04-06T02:41:04;13.45;;;7.88;;
76380;SDS011;65202;52.520;10.528;2023-04-06T02:43:32;10.15;;;7.13;;
76380;SDS011;65202;52.520;10.528;2023-04-06T02:45:59;12.32;;;7.20;;
76380;SDS011;65202;52.520;10.528;2023-04-06T02:48:26;15.70;;;7.85;;
76380;SDS011;65202;52.520;10.528;2023-04-06T02:50:54;12.63;;;7.90;;
76380;SDS011;65202;52.520;10.528;2023-04-06T02:53:21;14.88;;;8.35;;
76380;SDS011;65202;52.520;10.528;2023-04-06T02:55:48;13.15;;;8.13;;
76380;SDS011;65202;52.520;10.528;2023-04-06T02:58:15;13.68;;;9.00;;
76380;SDS011;65202;52.520;10.528;2023-04-06T03:00:42;14.50;;;9.10;;
76380;SDS011;65202;52.520;10.528;2023-04-06T03:03:09;11.30;;;8.38;;
76380;SDS011;65202;52.520;10.528;2023-04-06T03:05:37;17.88;;;8.07;;
76380;SDS011;65202;52.520;10.528;2023-04-06T03:08:04;14.68;;;8.02;;
76380;SDS011;65202;52.520;10.528;2023-04-06T03:10:31;19.13;;;8.65;;
76380;SDS011;65202;52.520;10.528;2023-04-06T03:12:59;15.23;;;8.52;;
76380;SDS011;65202;52.520;10.528;2023-04-06T03:15:26;11.07;;;8.13;;
76380;SDS011;65202;52.520;10.528;2023-04-06T03:17:53;11.07;;;8.40;;
76380;SDS011;65202;52.520;10.528;2023-04-06T03:20:20;13.57;;;8.68;;
76380;SDS011;65202;52.520;10.528;2023-04-06T03:22:47;14.15;;;7.80;;
76380;SDS011;65202;52.520;10.528;2023-04-06T03:25:15;16.08;;;8.18;;
76380;SDS011;65202;52.520;10.528;2023-04-06T03:27:42;12.18;;;8.05;;
76380;SDS011;65202;52.520;10.528;2023-04-06T03:30:09;15.15;;;8.90;;
76380;SDS011;65202;52.520;10.528;2023-04-06T03:32:37;14.23;;;8.52;;
76380;SDS011;65202;52.520;10.528;2023-04-06T03:35:04;13.02;;;8.35;;
76380;SDS011;65202;52.520;10.528;2023-04-06T03:37:32;13.88;;;8.20;;
76380;SDS011;65202;52.520;10.528;2023-04-06T03:39:59;19.25;;;11.18;;
76380;SDS011;65202;52.520;10.528;2023-04-06T03:42:26;15.77;;;9.90;;
76380;SDS011;65202;52.520;10.528;2023-04-06T03:44:53;17.98;;;10.50;;
76380;SDS011;65202;52.520;10.528;2023-04-06T03:47:20;30.10;;;14.70;;
76380;SDS011;65202;52.520;10.528;2023-04-06T03:49:48;35.35;;;15.57;;
76380;SDS011;65202;52.520;10.528;2023-04-06T03:52:15;33.22;;;14.40;;
76380;SDS011;65202;52.520;10.528;2023-04-06T03:54:42;28.33;;;14.25;;
76380;SDS011;65202;52.520;10.528;2023-04-06T03:57:09;33.47;;;14.82;;
76380;SDS011;65202;52.520;10.528;2023-04-06T03:59:36;28.10;;;13.38;;
76380;SDS011;65202;52.520;10.528;2023-04-06T04:02:04;24.27;;;12.77;;
76380;SDS011;65202;52.520;10.528;2023-04-06T04:04:31;23.25;;;11.38;;
76380;SDS011;65202;52.520;10.528;2023-04-06T04:06:58;28.58;;;13.18;;
76380;SDS011;65202;52.520;10.528;2023-04-06T04:09:26;33.20;;;15.95;;
76380;SDS011;65202;52.520;10.528;2023-04-06T04:11:55;40.53;;;16.27;;
76380;SDS011;65202;52.520;10.528;2023-04-06T04:14:23;37.80;;;16.75;;
76380;SDS011;65202;52.520;10.528;2023-04-06T04:16:50;41.15;;;16.30;;
76380;SDS011;65202;52.520;10.528;2023-04-06T04:19:17;28.05;;;12.93;;
76380;SDS011;65202;52.520;10.528;2023-04-06T04:21:45;20.60;;;10.05;;
76380;SDS011;65202;52.520;10.528;2023-04-06T04:24:13;16.95;;;9.80;;
76380;SDS011;65202;52.520;10.528;2023-04-06T04:26:41;34.65;;;10.20;;
76380;SDS011;65202;52.520;10.528;2023-04-06T04:29:08;17.88;;;9.82;;
76380;SDS011;65202;52.520;10.528;2023-04-06T04:31:35;23.55;;;11.63;;
76380;SDS011;65202;52.520;10.528;2023-04-06T04:34:03;26.70;;;11.50;;
76380;SDS011;65202;52.520;10.528;2023-04-06T04:36:30;40.92;;;17.23;;
76380;SDS011;65202;52.520;10.528;2023-04-06T04:38:58;41.35;;;15.98;;
76380;SDS011;65202;52.520;10.528;2023-04-06T04:41:27;43.08;;;18.58;;
76380;SDS011;65202;52.520;10.528;2023-04-06T04:43:55;34.20;;;14.95;;
76380;SDS011;65202;52.520;10.528;2023-04-06T04:46:22;24.60;;;12.57;;
76380;SDS011;65202;52.520;10.528;2023-04-06T04:48:49;19.33;;;11.40;;
76380;SDS011;65202;52.520;10.528;2023-04-06T04:51:17;16.27;;;9.75;;
76380;SDS011;65202;52.520;10.528;2023-04-06T04:53:44;14.95;;;9.05;;
76380;SDS011;65202;52.520;10.528;2023-04-06T04:56:11;15.68;;;7.97;;
76380;SDS011;65202;52.520;10.528;2023-04-06T04:58:38;14.15;;;8.45;;
76380;SDS011;65202;52.520;10.528;2023-04-06T05:01:05;16.50;;;8.35;;
76380;SDS011;65202;52.520;10.528;2023-04-06T05:03:33;14.15;;;8.10;;
76380;SDS011;65202;52.520;10.528;2023-04-06T05:06:01;15.48;;;8.32;;
76380;SDS011;65202;52.520;10.528;2023-04-06T05:08:28;16.30;;;8.20;;
76380;SDS011;65202;52.520;10.528;2023-04-06T05:10:55;15.52;;;8.52;;
76380;SDS011;65202;52.520;10.528;2023-04-06T05:13:23;14.00;;;8.07;;
76380;SDS011;65202;52.520;10.528;2023-04-06T05:15:50;13.55;;;7.80;;
76380;SDS011;65202;52.520;10.528;2023-04-06T05:18:17;13.52;;;7.45;;
76380;SDS011;65202;52.520;10.528;2023-04-06T05:20:45;14.27;;;7.60;;
76380;SDS011;65202;52.520;10.528;2023-04-06T05:23:12;15.13;;;7.35;;
76380;SDS011;65202;52.520;10.528;2023-04-06T05:25:39;13.50;;;7.78;;
76380;SDS011;65202;52.520;10.528;2023-04-06T05:28:07;13.40;;;7.45;;
76380;SDS011;65202;52.520;10.528;2023-04-06T05:30:34;11.68;;;7.60;;
76380;SDS011;65202;52.520;10.528;2023-04-06T05:33:02;13.18;;;7.80;;
76380;SDS011;65202;52.520;10.528;2023-04-06T05:35:29;15.70;;;8.35;;
76380;SDS011;65202;52.520;10.528;2023-04-06T05:37:57;13.05;;;8.20;;
76380;SDS011;65202;52.520;10.528;2023-04-06T05:40:24;14.30;;;8.48;;
76380;SDS011;65202;52.520;10.528;2023-04-06T05:42:51;15.13;;;7.82;;
76380;SDS011;65202;52.520;10.528;2023-04-06T05:45:19;14.18;;;8.77;;
76380;SDS011;65202;52.520;10.528;2023-04-06T05:47:47;19.63;;;10.63;;
76380;SDS011;65202;52.520;10.528;2023-04-06T05:50:14;18.23;;;9.10;;
76380;SDS011;65202;52.520;10.528;2023-04-06T05:52:42;12.70;;;8.45;;
76380;SDS011;65202;52.520;10.528;2023-04-06T05:55:11;21.55;;;8.45;;
76380;SDS011;65202;52.520;10.528;2023-04-06T05:57:39;20.45;;;8.02;;
76380;SDS011;65202;52.520;10.528;2023-04-06T06:00:06;12.23;;;8.32;;
76380;SDS011;65202;52.520;10.528;2023-04-06T06:02:36;15.07;;;9.23;;
76380;SDS011;65202;52.520;10.528;2023-04-06T06:05:04;15.38;;;8.50;;
76380;SDS011;65202;52.520;10.528;2023-04-06T06:07:31;15.63;;;8.77;;
76380;SDS011;65202;52.520;10.528;2023-04-06T06:09:58;12.77;;;8.40;;
76380;SDS011;65202;52.520;10.528;2023-04-06T06:12:26;14.75;;;7.82;;
76380;SDS011;65202;52.520;10.528;2023-04-06T06:14:53;13.93;;;8.55;;
76380;SDS011;65202;52.520;10.528;2023-04-06T06:17:22;11.38;;;8.10;;
76380;SDS011;65202;52.520;10.528;2023-04-06T06:19:49;15.45;;;9.07;;
76380;SDS011;65202;52.520;10.528;2023-04-06T06:22:16;16.38;;;9.73;;
76380;SDS011;65202;52.520;10.528;2023-04-06T06:24:44;14.55;;;9.32;;
76380;SDS011;65202;52.520;10.528;2023-04-06T06:27:11;11.77;;;8.32;;
76380;SDS011;65202;52.520;10.528;2023-04-06T06:29:38;14.60;;;9.82;;
76380;SDS011;65202;52.520;10.528;2023-04-06T06:32:06;20.75;;;11.32;;
76380;SDS011;65202;52.520;10.528;2023-04-06T06:34:35;18.33;;;11.10;;
76380;SDS011;65202;52.520;10.528;2023-04-06T06:37:02;13.90;;;9.82;;
76380;SDS011;65202;52.520;10.528;2023-04-06T06:39:29;14.00;;;8.93;;
76380;SDS011;65202;52.520;10.528;2023-04-06T06:41:57;13.15;;;8.65;;
76380;SDS011;65202;52.520;10.528;2023-04-06T06:44:27;18.65;;;9.35;;
76380;SDS011;65202;52.520;10.528;2023-04-06T06:46:55;17.33;;;9.82;;
76380;SDS011;65202;52.520;10.528;2023-04-06T06:49:22;16.08;;;9.20;;
76380;SDS011;65202;52.520;10.528;2023-04-06T06:51:49;16.58;;;8.82;;
76380;SDS011;65202;52.520;10.528;2023-04-06T06:54:16;13.13;;;8.93;;
76380;SDS011;65202;52.520;10.528;2023-04-06T06:56:44;15.00;;;9.30;;
76380;SDS011;65202;52.520;10.528;2023-04-06T06:59:11;16.63;;;9.45;;
76380;SDS011;65202;52.520;10.528;2023-04-06T07:01:39;11.68;;;8.45;;
76380;SDS011;65202;52.520;10.528;2023-04-06T07:04:06;13.77;;;8.23;;
76380;SDS011;65202;52.520;10.528;2023-04-06T07:06:35;14.38;;;8.90;;
76380;SDS011;65202;52.520;10.528;2023-04-06T07:09:03;11.90;;;9.20;;
76380;SDS011;65202;52.520;10.528;2023-04-06T07:11:30;11.52;;;8.18;;
76380;SDS011;65202;52.520;10.528;2023-04-06T07:13:57;12.95;;;8.25;;
76380;SDS011;65202;52.520;10.528;2023-04-06T07:16:25;10.20;;;7.80;;
76380;SDS011;65202;52.520;10.528;2023-04-06T07:18:52;12.80;;;7.78;;
76380;SDS011;65202;52.520;10.528;2023-04-06T07:21:19;11.68;;;7.78;;
76380;SDS011;65202;52.520;10.528;2023-04-06T07:23:47;12.70;;;7.68;;
76380;SDS011;65202;52.520;10.528;2023-04-06T07:26:15;8.57;;;7.20;;
76380;SDS011;65202;52.520;10.528;2023-04-06T07:28:42;15.32;;;8.23;;
76380;SDS011;65202;52.520;10.528;2023-04-06T07:31:09;8.60;;;7.25;;
76380;SDS011;65202;52.520;10.528;2023-04-06T07:33:36;12.18;;;7.65;;
76380;SDS011;65202;52.520;10.528;2023-04-06T07:36:03;10.32;;;7.40;;
76380;SDS011;65202;52.520;10.528;2023-04-06T07:38:31;13.20;;;6.82;;
76380;SDS011;65202;52.520;10.528;2023-04-06T07:40:59;10.82;;;6.70;;
76380;SDS011;65202;52.520;10.528;2023-04-06T07:43:26;10.68;;;6.50;;
76380;SDS011;65202;52.520;10.528;2023-04-06T07:45:54;10.35;;;6.78;;
76380;SDS011;65202;52.520;10.528;2023-04-06T07:48:21;20.45;;;7.47;;
76380;SDS011;65202;52.520;10.528;2023-04-06T07:50:48;10.98;;;6.82;;
76380;SDS011;65202;52.520;10.528;2023-04-06T07:53:16;9.65;;;6.90;;
76380;SDS011;65202;52.520;10.528;2023-04-06T07:55:43;14.70;;;6.43;;
76380;SDS011;65202;52.520;10.528;2023-04-06T07:58:11;8.30;;;6.60;;
76380;SDS011;65202;52.520;10.528;2023-04-06T08:00:38;9.40;;;6.53;;
76380;SDS011;65202;52.520;10.528;2023-04-06T08:03:05;13.38;;;6.43;;
76380;SDS011;65202;52.520;10.528;2023-04-06T08:05:32;10.95;;;6.63;;
76380;SDS011;65202;52.520;10.528;2023-04-06T08:07:59;11.23;;;6.65;;
76380;SDS011;65202;52.520;10.528;2023-04-06T08:10:27;8.65;;;6.20;;
76380;SDS011;65202;52.520;10.528;2023-04-06T08:12:54;12.05;;;6.53;;
76380;SDS011;65202;52.520;10.528;2023-04-06T08:15:21;11.38;;;6.45;;
76380;SDS011;65202;52.520;10.528;2023-04-06T08:17:48;11.40;;;6.78;;
76380;SDS011;65202;52.520;10.528;2023-04-06T08:20:16;14.18;;;6.85;;
76380;SDS011;65202;52.520;10.528;2023-04-06T08:22:43;14.05;;;7.45;;
76380;SDS011;65202;52.520;10.528;2023-04-06T08:25:10;14.73;;;7.07;;
76380;SDS011;65202;52.520;10.528;2023-04-06T08:27:37;8.30;;;6.30;;
76380;SDS011;65202;52.520;10.528;2023-04-06T08:30:05;13.90;;;6.75;;
76380;SDS011;65202;52.520;10.528;2023-04-06T08:32:32;9.18;;;6.80;;
76380;SDS011;65202;52.520;10.528;2023-04-06T08:35:00;8.35;;;6.60;;
76380;SDS011;65202;52.520;10.528;2023-04-06T08:37:27;10.40;;;6.72;;
76380;SDS011;65202;52.520;10.528;2023-04-06T08:39:54;8.23;;;6.65;;
76380;SDS011;65202;52.520;10.528;2023-04-06T08:42:21;9.10;;;6.65;;
76380;SDS011;65202;52.520;10.528;2023-04-06T08:44:53;7.38;;;6.53;;
76380;SDS011;65202;52.520;10.528;2023-04-06T08:47:21;9.63;;;7.13;;
76380;SDS011;65202;52.520;10.528;2023-04-06T08:49:51;9.18;;;7.07;;
76380;SDS011;65202;52.520;10.528;2023-04-06T08:52:20;18.63;;;7.00;;
76380;SDS011;65202;52.520;10.528;2023-04-06T08:54:47;10.40;;;7.28;;
76380;SDS011;65202;52.520;10.528;2023-04-06T08:57:15;9.68;;;6.80;;
76380;SDS011;65202;52.520;10.528;2023-04-06T08:59:44;7.88;;;6.72;;
76380;SDS011;65202;52.520;10.528;2023-04-06T09:02:14;14.60;;;7.15;;
76380;SDS011;65202;52.520;10.528;2023-04-06T09:04:46;15.60;;;7.50;;
76380;SDS011;65202;52.520;10.528;2023-04-06T09:07:17;10.50;;;7.53;;
76380;SDS011;65202;52.520;10.528;2023-04-06T09:09:44;9.50;;;7.13;;
76380;SDS011;65202;52.520;10.528;2023-04-06T09:12:24;10.85;;;7.32;;
76380;SDS011;65202;52.520;10.528;2023-04-06T09:14:57;10.55;;;7.53;;
76380;SDS011;65202;52.520;10.528;2023-04-06T09:17:26;8.65;;;6.90;;
76380;SDS011;65202;52.520;10.528;2023-04-06T09:20:02;10.65;;;7.38;;
76380;SDS011;65202;52.520;10.528;2023-04-06T09:22:37;10.32;;;6.90;;
76380;SDS011;65202;52.520;10.528;2023-04-06T09:25:08;9.38;;;7.22;;
76380;SDS011;65202;52.520;10.528;2023-04-06T09:27:37;9.43;;;7.25;;
76380;SDS011;65202;52.520;10.528;2023-04-06T09:30:06;8.82;;;6.97;;
76380;SDS011;65202;52.520;10.528;2023-04-06T09:32:58;9.85;;;7.03;;
76380;SDS011;65202;52.520;10.528;2023-04-06T09:35:26;8.70;;;7.20;;
76380;SDS011;65202;52.520;10.528;2023-04-06T09:37:56;10.35;;;8.18;;
76380;SDS011;65202;52.520;10.528;2023-04-06T09:40:23;10.10;;;7.53;;
76380;SDS011;65202;52.520;10.528;2023-04-06T09:42:51;9.77;;;7.45;;
76380;SDS011;65202;52.520;10.528;2023-04-06T09:45:19;11.02;;;7.80;;
76380;SDS011;65202;52.520;10.528;2023-04-06T09:47:47;14.05;;;7.43;;
76380;SDS011;65202;52.520;10.528;2023-04-06T09:50:18;11.07;;;7.45;;
76380;SDS011;65202;52.520;10.528;2023-04-06T09:52:48;10.85;;;7.97;;
76380;SDS011;65202;52.520;10.528;2023-04-06T09:58:18;12.45;;;8.27;;
76380;SDS011;65202;52.520;10.528;2023-04-06T10:01:01;13.68;;;7.68;;
76380;SDS011;65202;52.520;10.528;2023-04-06T10:03:49;12.98;;;8.13;;
76380;SDS011;65202;52.520;10.528;2023-04-06T10:06:33;14.40;;;8.55;;
76380;SDS011;65202;52.520;10.528;2023-04-06T10:09:02;11.30;;;9.27;;
76380;SDS011;65202;52.520;10.528;2023-04-06T10:11:34;15.25;;;8.68;;
76380;SDS011;65202;52.520;10.528;2023-04-06T10:14:02;11.10;;;8.57;;
76380;SDS011;65202;52.520;10.528;2023-04-06T10:16:29;14.25;;;8.40;;
76380;SDS011;65202;52.520;10.528;2023-04-06T10:19:04;17.35;;;12.52;;
76380;SDS011;65202;52.520;10.528;2023-04-06T10:21:40;12.57;;;9.50;;
76380;SDS011;65202;52.520;10.528;2023-04-06T10:24:15;11.25;;;8.88;;
76380;SDS011;65202;52.520;10.528;2023-04-06T10:26:54;15.02;;;9.88;;
76380;SDS011;65202;52.520;10.528;2023-04-06T10:29:24;12.82;;;9.07;;
76380;SDS011;65202;52.520;10.528;2023-04-06T10:31:52;10.75;;;8.57;;
76380;SDS011;65202;52.520;10.528;2023-04-06T10:34:19;13.27;;;8.77;;
76380;SDS011;65202;52.520;10.528;2023-04-06T10:36:46;11.82;;;8.82;;
76380;SDS011;65202;52.520;10.528;2023-04-06T10:39:13;13.10;;;9.00;;
76380;SDS011;65202;52.520;10.528;2023-04-06T10:41:42;11.52;;;8.45;;
76380;SDS011;65202;52.520;10.528;2023-04-06T10:44:21;11.60;;;9.00;;
76380;SDS011;65202;52.520;10.528;2023-04-06T10:46:54;13.52;;;9.40;;
76380;SDS011;65202;52.520;10.528;2023-04-06T10:51:53;13.30;;;9.27;;
76380;SDS011;65202;52.520;10.528;2023-04-06T10:54:23;12.73;;;8.55;;
76380;SDS011;65202;52.520;10.528;2023-04-06T10:56:53;14.05;;;8.70;;
76380;SDS011;65202;52.520;10.528;2023-04-06T10:59:21;15.25;;;9.82;;
76380;SDS011;65202;52.520;10.528;2023-04-06T11:01:49;13.00;;;8.60;;
76380;SDS011;65202;52.520;10.528;2023-04-06T11:04:17;14.82;;;8.82;;
76380;SDS011;65202;52.520;10.528;2023-04-06T11:06:49;16.23;;;10.05;;
76380;SDS011;65202;52.520;10.528;2023-04-06T11:09:27;29.08;;;17.98;;
76380;SDS011;65202;52.520;10.528;2023-04-06T11:11:56;26.00;;;16.65;;
76380;SDS011;65202;52.520;10.528;2023-04-06T11:14:23;17.45;;;11.68;;
76380;SDS011;65202;52.520;10.528;2023-04-06T11:16:51;33.45;;;23.27;;
76380;SDS011;65202;52.520;10.528;2023-04-06T11:19:19;16.13;;;11.60;;
76380;SDS011;65202;52.520;10.528;2023-04-06T11:21:46;12.27;;;8.52;;
76380;SDS011;65202;52.520;10.528;2023-04-06T11:26:57;11.88;;;9.00;;
76380;SDS011;65202;52.520;10.528;2023-04-06T11:29:28;13.98;;;8.70;;
76380;SDS011;65202;52.520;10.528;2023-04-06T11:31:58;13.20;;;9.10;;
76380;SDS011;65202;52.520;10.528;2023-04-06T11:34:32;12.15;;;8.80;;
76380;SDS011;65202;52.520;10.528;2023-04-06T11:37:08;12.27;;;8.50;;
76380;SDS011;65202;52.520;10.528;2023-04-06T11:39:41;13.38;;;9.13;;
76380;SDS011;65202;52.520;10.528;2023-04-06T11:42:24;15.30;;;9.85;;
76380;SDS011;65202;52.520;10.528;2023-04-06T11:44:54;14.38;;;9.40;;
76380;SDS011;65202;52.520;10.528;2023-04-06T11:47:34;16.38;;;9.27;;
76380;SDS011;65202;52.520;10.528;2023-04-06T11:50:07;15.55;;;10.00;;
76380;SDS011;65202;52.520;10.528;2023-04-06T11:52:40;15.38;;;11.48;;
76380;SDS011;65202;52.520;10.528;2023-04-06T11:55:18;12.43;;;8.80;;
76380;SDS011;65202;52.520;10.528;2023-04-06T11:57:45;12.05;;;9.50;;
76380;SDS011;65202;52.520;10.528;2023-04-06T12:00:13;13.15;;;9.63;;
76380;SDS011;65202;52.520;10.528;2023-04-06T12:02:44;12.73;;;8.70;;
76380;SDS011;65202;52.520;10.528;2023-04-06T12:05:14;13.75;;;9.32;;
76380;SDS011;65202;52.520;10.528;2023-04-06T12:07:41;13.52;;;9.13;;
76380;SDS011;65202;52.520;10.528;2023-04-06T12:10:09;16.08;;;8.88;;
76380;SDS011;65202;52.520;10.528;2023-04-06T12:12:36;19.88;;;9.05;;
76380;SDS011;65202;52.520;10.528;2023-04-06T12:15:04;13.90;;;9.27;;
76380;SDS011;65202;52.520;10.528;2023-04-06T12:17:32;15.00;;;8.68;;
76380;SDS011;65202;52.520;10.528;2023-04-06T12:19:59;14.52;;;9.40;;
76380;SDS011;65202;52.520;10.528;2023-04-06T12:22:35;14.40;;;8.25;;
76380;SDS011;65202;52.520;10.528;2023-04-06T12:25:03;13.18;;;8.52;;
76380;SDS011;65202;52.520;10.528;2023-04-06T12:27:31;13.55;;;8.85;;
76380;SDS011;65202;52.520;10.528;2023-04-06T12:29:58;14.20;;;8.05;;
76380;SDS011;65202;52.520;10.528;2023-04-06T12:32:25;9.63;;;8.10;;
76380;SDS011;65202;52.520;10.528;2023-04-06T12:34:53;12.95;;;8.50;;
76380;SDS011;65202;52.520;10.528;2023-04-06T12:37:20;14.02;;;8.65;;
76380;SDS011;65202;52.520;10.528;2023-04-06T12:39:47;11.50;;;7.60;;
76380;SDS011;65202;52.520;10.528;2023-04-06T12:42:15;9.05;;;7.38;;
76380;SDS011;65202;52.520;10.528;2023-04-06T12:44:42;10.55;;;7.88;;
76380;SDS011;65202;52.520;10.528;2023-04-06T12:47:10;16.33;;;7.85;;
76380;SDS011;65202;52.520;10.528;2023-04-06T12:49:38;13.55;;;8.38;;
76380;SDS011;65202;52.520;10.528;2023-04-06T12:52:05;12.63;;;8.60;;
76380;SDS011;65202;52.520;10.528;2023-04-06T12:54:32;13.77;;;9.80;;
76380;SDS011;65202;52.520;10.528;2023-04-06T12:56:59;11.57;;;9.10;;
76380;SDS011;65202;52.520;10.528;2023-04-06T12:59:27;12.75;;;8.73;;
76380;SDS011;65202;52.520;10.528;2023-04-06T13:02:01;10.70;;;8.52;;
76380;SDS011;65202;52.520;10.528;2023-04-06T13:04:30;12.60;;;8.77;;
76380;SDS011;65202;52.520;10.528;2023-04-06T13:06:57;12.88;;;8.32;;
76380;SDS011;65202;52.520;10.528;2023-04-06T13:09:24;15.93;;;9.43;;
76380;SDS011;65202;52.520;10.528;2023-04-06T13:11:51;17.83;;;8.68;;
76380;SDS011;65202;52.520;10.528;2023-04-06T13:14:18;13.82;;;9.38;;
76380;SDS011;65202;52.520;10.528;2023-04-06T13:16:45;15.13;;;10.20;;
76380;SDS011;65202;52.520;10.528;2023-04-06T13:19:13;11.73;;;9.15;;
76380;SDS011;65202;52.520;10.528;2023-04-06T13:21:40;12.95;;;9.48;;
76380;SDS011;65202;52.520;10.528;2023-04-06T13:24:07;18.83;;;8.98;;
76380;SDS011;65202;52.520;10.528;2023-04-06T13:26:35;24.20;;;10.10;;
76380;SDS011;65202;52.520;10.528;2023-04-06T13:29:02;12.82;;;8.73;;
76380;SDS011;65202;52.520;10.528;2023-04-06T13:31:30;12.45;;;9.18;;
76380;SDS011;65202;52.520;10.528;2023-04-06T13:33:57;14.68;;;8.48;;
76380;SDS011;65202;52.520;10.528;2023-04-06T13:36:25;12.30;;;8.57;;
76380;SDS011;65202;52.520;10.528;2023-04-06T13:38:53;11.50;;;8.70;;
76380;SDS011;65202;52.520;10.528;2023-04-06T13:41:22;13.27;;;9.45;;
76380;SDS011;65202;52.520;10.528;2023-04-06T13:43:52;14.73;;;9.68;;
76380;SDS011;65202;52.520;10.528;2023-04-06T13:46:19;14.15;;;9.75;;
76380;SDS011;65202;52.520;10.528;2023-04-06T13:48:47;11.35;;;8.30;;
76380;SDS011;65202;52.520;10.528;2023-04-06T13:51:14;10.15;;;8.43;;
76380;SDS011;65202;52.520;10.528;2023-04-06T13:53:42;11.75;;;7.72;;
76380;SDS011;65202;52.520;10.528;2023-04-06T13:56:09;12.75;;;8.75;;
76380;SDS011;65202;52.520;10.528;2023-04-06T13:58:37;10.75;;;8.48;;
76380;SDS011;65202;52.520;10.528;2023-04-06T14:01:04;11.30;;;8.20;;
76380;SDS011;65202;52.520;10.528;2023-04-06T14:03:37;14.15;;;8.70;;
76380;SDS011;65202;52.520;10.528;2023-04-06T14:06:10;13.60;;;9.10;;
76380;SDS011;65202;52.520;10.528;2023-04-06T14:08:56;13.98;;;9.98;;
76380;SDS011;65202;52.520;10.528;2023-04-06T14:11:24;14.45;;;9.63;;
76380;SDS011;65202;52.520;10.528;2023-04-06T14:13:51;12.48;;;9.70;;
76380;SDS011;65202;52.520;10.528;2023-04-06T14:16:18;13.50;;;9.65;;
76380;SDS011;65202;52.520;10.528;2023-04-06T14:18:46;13.18;;;9.73;;
76380;SDS011;65202;52.520;10.528;2023-04-06T14:21:13;12.90;;;8.90;;
76380;SDS011;65202;52.520;10.528;2023-04-06T14:23:41;11.38;;;8.52;;
76380;SDS011;65202;52.520;10.528;2023-04-06T14:26:09;11.10;;;8.45;;
76380;SDS011;65202;52.520;10.528;2023-04-06T14:28:37;11.88;;;8.63;;
76380;SDS011;65202;52.520;10.528;2023-04-06T14:31:11;10.63;;;8.20;;
76380;SDS011;65202;52.520;10.528;2023-04-06T14:33:42;15.25;;;7.88;;
76380;SDS011;65202;52.520;10.528;2023-04-06T14:36:10;11.85;;;8.02;;